F/V Argentario — FGPE — position and weather

sailwx.info

Track history (hours):
 
Tides and Currents Weather Stations Pressure Air Temp Water Temp Dewpoint Dewpoint Depression Visibility Wind Speed Wind Dir Waves Ship Positions

F/V Argentario

Last reported at 2016-Sep-30 14:25 UTC. Time now 2016-Sep-30 23:52 UTC.
Position N 46°44' W 002°21'.

Length 22 m; draft 3.4 m.

Type: Fishing. MMSI: 228975000.

Date/timePositionNaut miles runAvg speedWind from/ knotsBaromVisibWave heightAir tempDewpointWater temp
2016-Sep-30 14:25N 46°44' W 002°21'51 4.3
2016-Sep-30 02:33N 46°27' W 003°31'0 0.1
2016-Sep-29 23:12N 46°27' W 003°31'6 0.8
2016-Sep-29 15:22N 46°24' W 003°23'2 2.8
2016-Sep-29 14:30N 46°22' W 003°20'4 4.7
2016-Sep-29 13:33N 46°21' W 003°26'7 1.3
2016-Sep-29 08:30N 46°26' W 003°32'1 0.1
2016-Sep-29 00:06N 46°26' W 003°34'0 0.0
2016-Sep-28 21:04N 46°26' W 003°34'0 0.1
2016-Sep-28 19:10N 46°26' W 003°34'0 0.1
2016-Sep-28 16:08N 46°26' W 003°34'0 0.0
2016-Sep-28 15:25N 46°26' W 003°34'1 0.0
2016-Sep-27 19:32N 46°26' W 003°35'10 1.8
2016-Sep-27 14:21N 46°33' W 003°45'84 3.1
2016-Sep-26 11:30N 47°45' W 004°49'3 0.9
2016-Sep-26 08:23N 47°45' W 004°53'3 0.5
2016-Sep-26 02:27N 47°44' W 004°49'0 0.0
2016-Sep-26 01:28N 47°44' W 004°49'0 0.0
2016-Sep-26 00:10N 47°44' W 004°49'0 0.0
2016-Sep-25 21:33N 47°45' W 004°49'0 0.1
2016-Sep-25 17:30N 47°44' W 004°49'0 0.0
2016-Sep-25 16:33N 47°44' W 004°49'0 0.0
2016-Sep-25 15:33N 47°44' W 004°49'0 0.0
2016-Sep-25 14:31N 47°44' W 004°49'4 1.9
2016-Sep-25 12:33N 47°45' W 004°54'3 3.1
2016-Sep-25 11:33N 47°45' W 004°59'1 1.3
2016-Sep-25 10:33N 47°45' W 004°57'1 1.2
2016-Sep-25 09:26N 47°45' W 004°55'2 0.9
2016-Sep-25 07:33N 47°45' W 004°53'2 0.7
2016-Sep-25 04:32N 47°45' W 004°49'0 0.0
2016-Sep-25 00:33N 47°45' W 004°49'0 0.0
2016-Sep-24 22:33N 47°45' W 004°49'0 0.3
2016-Sep-24 21:21N 47°45' W 004°50'0 0.0
2016-Sep-24 17:30N 47°45' W 004°50'6 5.6
2016-Sep-24 16:31N 47°45' W 004°41'17 8.5
2016-Sep-24 14:34N 47°48' W 004°17'23 5.9
2016-Sep-24 10:33N 47°45' W 004°52'6 5.5
2016-Sep-24 09:32N 47°45' W 004°60'8 1.3
2016-Sep-24 03:23N 47°42' W 004°49'0 0.1
2016-Sep-24 01:27N 47°42' W 004°48'0 0.3
2016-Sep-24 00:32N 47°41' W 004°48'0 0.0
2016-Sep-23 19:27N 47°41' W 004°48'1 0.2
2016-Sep-23 15:06N 47°42' W 004°50'3 1.8
2016-Sep-23 13:32N 47°41' W 004°54'14 1.4
2016-Sep-23 03:22N 47°31' W 005°10'0 0.1
2016-Sep-22 20:07N 47°31' W 005°09'75 3.6
2016-Sep-21 23:14N 46°53' W 003°34'0 0.0
2016-Sep-21 22:34N 46°53' W 003°34'0 0.0
2016-Sep-21 19:15N 46°53' W 003°33'41 3.7
2016-Sep-21 08:22N 46°46' W 002°35'  
Track history (hours):
 
Tides and Currents Weather Stations Pressure Air Temp Water Temp Dewpoint Dewpoint Depression Visibility Wind Speed Wind Dir Waves Ship Positions

F/V Argentario

Last reported at 2016-Sep-30 14:25 UTC. Time now 2016-Sep-30 23:52 UTC.
Position N 46°44' W 002°21'.

Length 22 m; draft 3.4 m.

Type: Fishing. MMSI: 228975000.

Date/timePositionNaut miles runAvg speedWind from/ knotsBaromVisibWave heightAir tempDewpointWater temp
2016-Sep-30 14:25N 46°44' W 002°21'51 4.3
2016-Sep-30 02:33N 46°27' W 003°31'0 0.1
2016-Sep-29 23:12N 46°27' W 003°31'6 0.8
2016-Sep-29 15:22N 46°24' W 003°23'2 2.8
2016-Sep-29 14:30N 46°22' W 003°20'4 4.7
2016-Sep-29 13:33N 46°21' W 003°26'7 1.3
2016-Sep-29 08:30N 46°26' W 003°32'1 0.1
2016-Sep-29 00:06N 46°26' W 003°34'0 0.0
2016-Sep-28 21:04N 46°26' W 003°34'0 0.1
2016-Sep-28 19:10N 46°26' W 003°34'0 0.1
2016-Sep-28 16:08N 46°26' W 003°34'0 0.0
2016-Sep-28 15:25N 46°26' W 003°34'1 0.0
2016-Sep-27 19:32N 46°26' W 003°35'10 1.8
2016-Sep-27 14:21N 46°33' W 003°45'84 3.1
2016-Sep-26 11:30N 47°45' W 004°49'3 0.9
2016-Sep-26 08:23N 47°45' W 004°53'3 0.5
2016-Sep-26 02:27N 47°44' W 004°49'0 0.0
2016-Sep-26 01:28N 47°44' W 004°49'0 0.0
2016-Sep-26 00:10N 47°44' W 004°49'0 0.0
2016-Sep-25 21:33N 47°45' W 004°49'0 0.1
2016-Sep-25 17:30N 47°44' W 004°49'0 0.0
2016-Sep-25 16:33N 47°44' W 004°49'0 0.0
2016-Sep-25 15:33N 47°44' W 004°49'0 0.0
2016-Sep-25 14:31N 47°44' W 004°49'4 1.9
2016-Sep-25 12:33N 47°45' W 004°54'3 3.1
2016-Sep-25 11:33N 47°45' W 004°59'1 1.3
2016-Sep-25 10:33N 47°45' W 004°57'1 1.2
2016-Sep-25 09:26N 47°45' W 004°55'2 0.9
2016-Sep-25 07:33N 47°45' W 004°53'2 0.7
2016-Sep-25 04:32N 47°45' W 004°49'0 0.0
2016-Sep-25 00:33N 47°45' W 004°49'0 0.0
2016-Sep-24 22:33N 47°45' W 004°49'0 0.3
2016-Sep-24 21:21N 47°45' W 004°50'0 0.0
2016-Sep-24 17:30N 47°45' W 004°50'6 5.6
2016-Sep-24 16:31N 47°45' W 004°41'17 8.5
2016-Sep-24 14:34N 47°48' W 004°17'23 5.9
2016-Sep-24 10:33N 47°45' W 004°52'6 5.5
2016-Sep-24 09:32N 47°45' W 004°60'8 1.3
2016-Sep-24 03:23N 47°42' W 004°49'0 0.1
2016-Sep-24 01:27N 47°42' W 004°48'0 0.3
2016-Sep-24 00:32N 47°41' W 004°48'0 0.0
2016-Sep-23 19:27N 47°41' W 004°48'1 0.2
2016-Sep-23 15:06N 47°42' W 004°50'3 1.8
2016-Sep-23 13:32N 47°41' W 004°54'14 1.4
2016-Sep-23 03:22N 47°31' W 005°10'0 0.1
2016-Sep-22 20:07N 47°31' W 005°09'75 3.6
2016-Sep-21 23:14N 46°53' W 003°34'0 0.0
2016-Sep-21 22:34N 46°53' W 003°34'0 0.0
2016-Sep-21 19:15N 46°53' W 003°33'41 3.7
2016-Sep-21 08:22N 46°46' W 002°35'  

Dump ship's entire track history